»·PEaware :: ASH6032 KIAD-CYUL

ASH6032 :: KIAD-CYUL

FLIGHT INFORMATION

Flight Status: Arrived
Operator:
Mesa Airlines
More flights by this operator :: More flights under this callsign
Pilot: Drew L. (13237)
Aircraft: CANADAIR CL-600 CRJ-700
(CRJ7)
More flights by this aircraft type
Origin: KIAD Washington Dulles Intl
United States
Destination: CYUL Montréal-Trudeau
Canada
More flights between these airports :: More routes between these airports
Route: JCOBY3 SWANN BROSS J42 RBV PBERG CARTR3
File this flight plan on PilotEdge
Remarks: PBN / D1 DOF / 180512 REG / N921SB EET / KZNY0024 KZBW0035 CZUL0107 OPR / ASH PER / C RMK / TCAS SIMBRIEF
Altitude:
(Current/Filed)
35,000ft
Speed:
(Current/Filed)
447kts
Departed: 12-May-18 11:04 AM
Arrived: 12-May-18 12:22 PM
Distance/Time
Traveled:
424nm/1:18
Distance/Time
To Go:
Arrived

Flight Plot

Page will automatically refresh every two minutes.

Flight plan parsing failed; only flown route is shown


Map Options




Map Legend


Flown Route
Filed Route
Departure Airport
Arrival Airport
Navaid (VOR, NDB)
Fix

Horizontal Profiles

Position Reports

Time Latitude Longitude Heading Altitude Ground
Speed
12-May-18 10:49 38.947900 -77.441323 18 319ft 0kts
12-May-18 10:50 38.947900 -77.441323 18 319ft 0kts
12-May-18 10:51 38.947900 -77.441323 18 319ft 0kts
12-May-18 10:52 38.947900 -77.441323 18 319ft 0kts
12-May-18 10:53 38.947900 -77.441323 18 319ft 0kts
12-May-18 10:54 38.947900 -77.441323 18 319ft 0kts
12-May-18 10:55 38.947900 -77.441323 18 319ft 0kts
12-May-18 10:56 38.947900 -77.441323 18 319ft 0kts
12-May-18 10:57 38.947900 -77.441323 18 319ft 0kts
12-May-18 10:58 38.947394 -77.441567 31 319ft 2kts
12-May-18 10:59 38.947259 -77.442174 90 319ft 0kts
12-May-18 11:00 38.947259 -77.442171 90 319ft 0kts
12-May-18 11:01 38.947257 -77.441834 90 319ft 5kts
12-May-18 11:02 38.948176 -77.438562 4 319ft 11kts
12-May-18 11:03 38.954485 -77.438408 10 319ft 22kts
12-May-18 11:04 38.951932 -77.435990 180 319ft 70kts
12-May-18 11:05 38.907113 -77.437988 184 3159ft 189kts
12-May-18 11:06 38.852400 -77.406310 113 6917ft 294kts
12-May-18 11:07 38.882406 -77.300221 46 10918ft 353kts
12-May-18 11:08 38.953066 -77.209464 42 14559ft 368kts
12-May-18 11:09 39.014182 -77.100137 63 17055ft 391kts
12-May-18 11:10 39.056390 -76.968361 60 19350ft 402kts
12-May-18 11:11 39.105037 -76.836153 61 21566ft 416kts
12-May-18 11:12 39.153443 -76.698401 61 23510ft 429kts
12-May-18 11:13 39.203856 -76.556091 62 25366ft 441kts
12-May-18 11:14 39.255312 -76.410076 62 27023ft 454kts
12-May-18 11:15 39.307787 -76.259931 62 28572ft 465kts
12-May-18 11:16 39.361202 -76.106690 62 30365ft 464kts
12-May-18 11:17 39.413983 -75.954236 62 31944ft 463kts
12-May-18 11:18 39.466377 -75.801677 63 33359ft 461kts
12-May-18 11:19 39.518219 -75.650244 62 34503ft 460kts
12-May-18 11:20 39.570326 -75.497461 63 35072ft 473kts
12-May-18 11:21 39.624038 -75.338979 64 35080ft 477kts
12-May-18 11:22 39.701170 -75.208283 36 35089ft 451kts
12-May-18 11:23 39.787313 -75.090441 45 35091ft 448kts
12-May-18 11:24 39.870588 -74.971592 42 35093ft 442kts
12-May-18 11:25 39.955396 -74.849254 43 35096ft 469kts
12-May-18 11:26 40.044936 -74.722652 42 35089ft 477kts
12-May-18 11:27 40.134529 -74.593684 42 35084ft 482kts
12-May-18 11:28 40.236109 -74.487953 14 35098ft 460kts
12-May-18 11:29 40.359644 -74.464646 358 35107ft 449kts
12-May-18 11:30 40.483984 -74.437803 2 35125ft 455kts
12-May-18 11:31 40.609528 -74.413183 1 35130ft 456kts
12-May-18 11:32 40.735093 -74.387318 1 35140ft 458kts
12-May-18 11:33 40.861012 -74.361334 1 35146ft 459kts
12-May-18 11:34 40.987578 -74.335371 0 35151ft 459kts
12-May-18 11:35 41.113722 -74.309478 0 35151ft 459kts
12-May-18 11:36 41.239548 -74.283331 0 35151ft 457kts
12-May-18 11:37 41.365504 -74.257383 0 35157ft 456kts
12-May-18 11:38 41.490648 -74.230977 0 35158ft 455kts
12-May-18 11:39 41.615887 -74.204741 359 35161ft 454kts
12-May-18 11:40 41.740401 -74.178421 359 35166ft 453kts
12-May-18 11:41 41.864614 -74.152241 359 35165ft 451kts
12-May-18 11:42 41.988975 -74.125892 359 35164ft 451kts
12-May-18 11:43 42.112658 -74.099532 359 35170ft 450kts
12-May-18 11:44 42.236230 -74.073070 359 35181ft 450kts
12-May-18 11:45 42.360120 -74.046502 358 35190ft 449kts
12-May-18 11:46 42.483518 -74.020061 358 35194ft 450kts
12-May-18 11:47 42.606902 -73.993375 358 35198ft 449kts
12-May-18 11:48 42.730570 -73.966665 358 35200ft 449kts
12-May-18 11:49 42.833147 -73.944154 358 35202ft 448kts
12-May-18 11:50 42.956541 -73.916941 358 35202ft 448kts
12-May-18 11:51 43.079311 -73.890048 357 35202ft 447kts
12-May-18 11:52 43.222378 -73.858664 357 35201ft 447kts
12-May-18 11:53 43.345386 -73.831405 357 35200ft 446kts
12-May-18 11:54 43.467908 -73.804262 357 35199ft 446kts
12-May-18 11:55 43.590807 -73.776823 356 35190ft 446kts
12-May-18 11:56 43.689055 -73.754169 356 33882ft 416kts
12-May-18 11:57 43.803187 -73.728981 357 30270ft 414kts
12-May-18 11:58 43.914425 -73.703621 358 27362ft 395kts
12-May-18 11:59 44.020672 -73.679480 358 24714ft 379kts
12-May-18 12:00 44.122833 -73.656036 358 22307ft 365kts
12-May-18 12:01 44.221051 -73.633568 358 19950ft 349kts
12-May-18 12:02 44.314666 -73.612165 0 17577ft 334kts
12-May-18 12:03 44.405170 -73.591521 0 15400ft 326kts
12-May-18 12:04 44.494235 -73.570910 1 14087ft 321kts
12-May-18 12:05 44.581736 -73.550831 2 13072ft 317kts
12-May-18 12:06 44.668455 -73.530475 2 12164ft 313kts
12-May-18 12:07 44.752886 -73.526557 345 11272ft 300kts
12-May-18 12:08 44.835794 -73.539322 351 10502ft 300kts
12-May-18 12:09 44.917927 -73.548097 351 10167ft 286kts
12-May-18 12:10 44.993044 -73.556521 351 10037ft 255kts
12-May-18 12:11 45.062472 -73.563741 352 9450ft 247kts
12-May-18 12:12 45.130301 -73.571630 354 8185ft 242kts
12-May-18 12:13 45.196990 -73.578861 354 6510ft 239kts
12-May-18 12:14 45.262376 -73.585948 353 5213ft 222kts
12-May-18 12:15 45.319831 -73.591877 355 4573ft 192kts
12-May-18 12:16 45.373768 -73.597780 354 3808ft 207kts
12-May-18 12:17 45.427701 -73.598702 1 3164ft 175kts
12-May-18 12:18 45.477082 -73.599672 335 2626ft 158kts
12-May-18 12:19 45.502247 -73.649446 290 1609ft 149kts
12-May-18 12:20 45.489113 -73.700092 220 497ft 138kts
12-May-18 12:21 45.462851 -73.734634 221 125ft 95kts
12-May-18 12:22 45.458931 -73.744731 212 125ft 8kts

Navigation Log

Ident Type
Flight plan parsing failed, navigation log unavailable